sensor_id;sensor_type;location;lat;lon;timestamp;temperature;humidity
68813;DHT22;55808;48.112;11.552;2022-11-02T00:02:24;10.40;99.90
68813;DHT22;55808;48.112;11.552;2022-11-02T00:04:49;10.40;99.90
68813;DHT22;55808;48.112;11.552;2022-11-02T00:07:15;10.40;99.90
68813;DHT22;55808;48.112;11.552;2022-11-02T00:09:41;10.30;99.90
68813;DHT22;55808;48.112;11.552;2022-11-02T00:12:06;10.30;99.90
68813;DHT22;55808;48.112;11.552;2022-11-02T00:14:32;10.30;99.90
68813;DHT22;55808;48.112;11.552;2022-11-02T00:16:58;10.20;99.90
68813;DHT22;55808;48.112;11.552;2022-11-02T00:19:24;10.20;99.90
68813;DHT22;55808;48.112;11.552;2022-11-02T00:21:49;10.20;99.90
68813;DHT22;55808;48.112;11.552;2022-11-02T00:24:15;10.20;99.90
68813;DHT22;55808;48.112;11.552;2022-11-02T00:26:40;10.10;99.90
68813;DHT22;55808;48.112;11.552;2022-11-02T00:29:07;10.00;99.90
68813;DHT22;55808;48.112;11.552;2022-11-02T00:31:32;10.00;99.90
68813;DHT22;55808;48.112;11.552;2022-11-02T00:33:58;10.00;99.90
68813;DHT22;55808;48.112;11.552;2022-11-02T00:36:24;10.00;99.90
68813;DHT22;55808;48.112;11.552;2022-11-02T00:38:50;9.90;99.90
68813;DHT22;55808;48.112;11.552;2022-11-02T00:41:17;9.90;99.90
68813;DHT22;55808;48.112;11.552;2022-11-02T00:43:46;10.00;99.90
68813;DHT22;55808;48.112;11.552;2022-11-02T00:46:12;10.00;99.90
68813;DHT22;55808;48.112;11.552;2022-11-02T00:48:37;9.90;99.90
68813;DHT22;55808;48.112;11.552;2022-11-02T00:51:03;9.90;99.90
68813;DHT22;55808;48.112;11.552;2022-11-02T00:53:29;9.90;99.90
68813;DHT22;55808;48.112;11.552;2022-11-02T00:55:54;9.90;99.90
68813;DHT22;55808;48.112;11.552;2022-11-02T00:58:20;9.90;99.90
68813;DHT22;55808;48.112;11.552;2022-11-02T01:00:46;9.90;99.90
68813;DHT22;55808;48.112;11.552;2022-11-02T01:03:11;10.00;99.90
68813;DHT22;55808;48.112;11.552;2022-11-02T01:05:38;10.00;99.90
68813;DHT22;55808;48.112;11.552;2022-11-02T01:08:04;9.90;99.90
68813;DHT22;55808;48.112;11.552;2022-11-02T01:10:29;9.90;99.90
68813;DHT22;55808;48.112;11.552;2022-11-02T01:12:55;9.90;99.90
68813;DHT22;55808;48.112;11.552;2022-11-02T01:15:21;9.90;99.90
68813;DHT22;55808;48.112;11.552;2022-11-02T01:17:46;9.90;99.90
68813;DHT22;55808;48.112;11.552;2022-11-02T01:20:12;9.90;99.90
68813;DHT22;55808;48.112;11.552;2022-11-02T01:22:38;9.90;99.90
68813;DHT22;55808;48.112;11.552;2022-11-02T01:25:04;9.80;99.90
68813;DHT22;55808;48.112;11.552;2022-11-02T01:27:30;9.80;99.90
68813;DHT22;55808;48.112;11.552;2022-11-02T01:29:55;9.80;99.90
68813;DHT22;55808;48.112;11.552;2022-11-02T01:32:21;9.80;99.90
68813;DHT22;55808;48.112;11.552;2022-11-02T01:34:47;9.80;99.90
68813;DHT22;55808;48.112;11.552;2022-11-02T01:37:12;9.80;99.90
68813;DHT22;55808;48.112;11.552;2022-11-02T01:39:38;9.70;99.90
68813;DHT22;55808;48.112;11.552;2022-11-02T01:42:16;9.70;99.90
68813;DHT22;55808;48.112;11.552;2022-11-02T01:44:42;9.70;99.90
68813;DHT22;55808;48.112;11.552;2022-11-02T01:47:18;9.70;99.90
68813;DHT22;55808;48.112;11.552;2022-11-02T01:49:47;9.70;99.90
68813;DHT22;55808;48.112;11.552;2022-11-02T01:52:18;9.60;99.90
68813;DHT22;55808;48.112;11.552;2022-11-02T01:54:52;9.60;99.90
68813;DHT22;55808;48.112;11.552;2022-11-02T01:57:21;9.60;99.90
68813;DHT22;55808;48.112;11.552;2022-11-02T02:02:28;9.80;99.90
68813;DHT22;55808;48.112;11.552;2022-11-02T02:05:03;9.90;99.90
68813;DHT22;55808;48.112;11.552;2022-11-02T02:07:30;9.90;99.90
68813;DHT22;55808;48.112;11.552;2022-11-02T02:10:00;10.00;99.90
68813;DHT22;55808;48.112;11.552;2022-11-02T02:12:27;10.00;99.90
68813;DHT22;55808;48.112;11.552;2022-11-02T02:14:53;10.00;99.90
68813;DHT22;55808;48.112;11.552;2022-11-02T02:17:25;9.90;99.90
68813;DHT22;55808;48.112;11.552;2022-11-02T02:20:10;9.90;99.90
68813;DHT22;55808;48.112;11.552;2022-11-02T02:26:25;9.70;99.90
68813;DHT22;55808;48.112;11.552;2022-11-02T02:31:42;9.60;99.90
68813;DHT22;55808;48.112;11.552;2022-11-02T02:34:16;9.60;99.90
68813;DHT22;55808;48.112;11.552;2022-11-02T02:39:20;9.50;99.90
68813;DHT22;55808;48.112;11.552;2022-11-02T02:45:06;9.60;99.90
68813;DHT22;55808;48.112;11.552;2022-11-02T02:47:36;9.70;99.90
68813;DHT22;55808;48.112;11.552;2022-11-02T02:50:13;9.90;99.90
68813;DHT22;55808;48.112;11.552;2022-11-02T02:52:43;10.10;99.90
68813;DHT22;55808;48.112;11.552;2022-11-02T02:55:17;10.30;99.90
68813;DHT22;55808;48.112;11.552;2022-11-02T02:57:45;10.30;99.90
68813;DHT22;55808;48.112;11.552;2022-11-02T03:00:14;10.40;99.90
68813;DHT22;55808;48.112;11.552;2022-11-02T03:02:42;10.50;99.90
68813;DHT22;55808;48.112;11.552;2022-11-02T03:05:27;10.70;99.90
68813;DHT22;55808;48.112;11.552;2022-11-02T03:07:54;10.80;99.90
68813;DHT22;55808;48.112;11.552;2022-11-02T03:10:41;10.90;99.90
68813;DHT22;55808;48.112;11.552;2022-11-02T03:16:02;11.00;99.90
68813;DHT22;55808;48.112;11.552;2022-11-02T03:18:46;11.10;99.90
68813;DHT22;55808;48.112;11.552;2022-11-02T03:21:37;11.10;99.90
68813;DHT22;55808;48.112;11.552;2022-11-02T03:27:20;11.20;99.90
68813;DHT22;55808;48.112;11.552;2022-11-02T03:30:10;11.30;99.90
68813;DHT22;55808;48.112;11.552;2022-11-02T03:35:30;11.20;99.90
68813;DHT22;55808;48.112;11.552;2022-11-02T03:38:01;11.20;99.90
68813;DHT22;55808;48.112;11.552;2022-11-02T03:40:46;11.30;99.90
68813;DHT22;55808;48.112;11.552;2022-11-02T03:43:13;11.30;99.90
68813;DHT22;55808;48.112;11.552;2022-11-02T03:45:49;11.40;99.90
68813;DHT22;55808;48.112;11.552;2022-11-02T03:48:17;11.40;99.90
68813;DHT22;55808;48.112;11.552;2022-11-02T03:50:47;11.30;99.90
68813;DHT22;55808;48.112;11.552;2022-11-02T03:53:29;11.30;99.90
68813;DHT22;55808;48.112;11.552;2022-11-02T03:56:06;11.20;99.90
68813;DHT22;55808;48.112;11.552;2022-11-02T03:58:32;11.10;99.90
68813;DHT22;55808;48.112;11.552;2022-11-02T04:01:02;11.10;99.90
68813;DHT22;55808;48.112;11.552;2022-11-02T04:03:30;11.00;99.90
68813;DHT22;55808;48.112;11.552;2022-11-02T04:05:57;11.00;99.90
68813;DHT22;55808;48.112;11.552;2022-11-02T04:08:33;11.00;99.90
68813;DHT22;55808;48.112;11.552;2022-11-02T04:11:01;11.00;99.90
68813;DHT22;55808;48.112;11.552;2022-11-02T04:13:45;11.00;99.90
68813;DHT22;55808;48.112;11.552;2022-11-02T04:16:29;11.00;99.90
68813;DHT22;55808;48.112;11.552;2022-11-02T04:18:55;10.90;99.90
68813;DHT22;55808;48.112;11.552;2022-11-02T04:21:40;10.90;99.90
68813;DHT22;55808;48.112;11.552;2022-11-02T04:24:26;10.90;99.90
68813;DHT22;55808;48.112;11.552;2022-11-02T04:27:10;10.90;99.90
68813;DHT22;55808;48.112;11.552;2022-11-02T04:29:35;10.90;99.90
68813;DHT22;55808;48.112;11.552;2022-11-02T04:32:02;10.90;99.90
68813;DHT22;55808;48.112;11.552;2022-11-02T04:34:28;10.80;99.90
68813;DHT22;55808;48.112;11.552;2022-11-02T04:36:53;10.80;99.90
68813;DHT22;55808;48.112;11.552;2022-11-02T04:39:19;10.80;99.90
68813;DHT22;55808;48.112;11.552;2022-11-02T04:41:44;10.80;99.90
68813;DHT22;55808;48.112;11.552;2022-11-02T04:44:12;10.80;99.90
68813;DHT22;55808;48.112;11.552;2022-11-02T04:46:42;10.80;99.90
68813;DHT22;55808;48.112;11.552;2022-11-02T04:49:09;10.80;99.90
68813;DHT22;55808;48.112;11.552;2022-11-02T04:51:35;10.80;99.90
68813;DHT22;55808;48.112;11.552;2022-11-02T04:54:01;10.80;99.90
68813;DHT22;55808;48.112;11.552;2022-11-02T04:56:28;10.70;99.90
68813;DHT22;55808;48.112;11.552;2022-11-02T04:58:56;10.70;99.90
68813;DHT22;55808;48.112;11.552;2022-11-02T05:01:23;10.70;99.90
68813;DHT22;55808;48.112;11.552;2022-11-02T05:03:51;10.70;99.90
68813;DHT22;55808;48.112;11.552;2022-11-02T05:06:19;10.60;99.90
68813;DHT22;55808;48.112;11.552;2022-11-02T05:08:45;10.60;99.90
68813;DHT22;55808;48.112;11.552;2022-11-02T05:11:11;10.60;99.90
68813;DHT22;55808;48.112;11.552;2022-11-02T05:13:38;10.70;99.90
68813;DHT22;55808;48.112;11.552;2022-11-02T05:16:05;10.70;99.90
68813;DHT22;55808;48.112;11.552;2022-11-02T05:18:31;10.70;99.90
68813;DHT22;55808;48.112;11.552;2022-11-02T05:20:58;10.80;99.90
68813;DHT22;55808;48.112;11.552;2022-11-02T05:23:24;10.80;99.90
68813;DHT22;55808;48.112;11.552;2022-11-02T05:26:03;10.80;99.90
68813;DHT22;55808;48.112;11.552;2022-11-02T05:28:31;10.90;99.90
68813;DHT22;55808;48.112;11.552;2022-11-02T05:30:59;10.90;99.90
68813;DHT22;55808;48.112;11.552;2022-11-02T05:33:27;10.80;99.90
68813;DHT22;55808;48.112;11.552;2022-11-02T05:35:55;10.70;99.90
68813;DHT22;55808;48.112;11.552;2022-11-02T05:38:25;10.60;99.90
68813;DHT22;55808;48.112;11.552;2022-11-02T05:40:56;10.60;99.90
68813;DHT22;55808;48.112;11.552;2022-11-02T05:43:24;10.50;99.90
68813;DHT22;55808;48.112;11.552;2022-11-02T05:45:55;10.40;99.90
68813;DHT22;55808;48.112;11.552;2022-11-02T05:48:22;10.40;99.90
68813;DHT22;55808;48.112;11.552;2022-11-02T05:50:48;10.30;99.90
68813;DHT22;55808;48.112;11.552;2022-11-02T05:53:15;10.30;99.90
68813;DHT22;55808;48.112;11.552;2022-11-02T05:55:40;10.30;99.90
68813;DHT22;55808;48.112;11.552;2022-11-02T05:58:06;10.30;99.90
68813;DHT22;55808;48.112;11.552;2022-11-02T06:00:32;10.20;99.90
68813;DHT22;55808;48.112;11.552;2022-11-02T06:02:58;10.20;99.90
68813;DHT22;55808;48.112;11.552;2022-11-02T06:05:24;10.30;99.90
68813;DHT22;55808;48.112;11.552;2022-11-02T06:07:50;10.30;99.90
68813;DHT22;55808;48.112;11.552;2022-11-02T06:10:16;10.40;99.90
68813;DHT22;55808;48.112;11.552;2022-11-02T06:12:42;10.30;99.90
68813;DHT22;55808;48.112;11.552;2022-11-02T06:15:09;10.30;99.90
68813;DHT22;55808;48.112;11.552;2022-11-02T06:17:39;10.30;99.90
68813;DHT22;55808;48.112;11.552;2022-11-02T06:20:05;10.40;99.90
68813;DHT22;55808;48.112;11.552;2022-11-02T06:22:38;10.30;99.90
68813;DHT22;55808;48.112;11.552;2022-11-02T06:25:03;10.30;99.90
68813;DHT22;55808;48.112;11.552;2022-11-02T06:27:29;10.40;99.90
68813;DHT22;55808;48.112;11.552;2022-11-02T06:29:55;10.40;99.90
68813;DHT22;55808;48.112;11.552;2022-11-02T06:32:20;10.30;99.90
68813;DHT22;55808;48.112;11.552;2022-11-02T06:34:46;10.30;99.90
68813;DHT22;55808;48.112;11.552;2022-11-02T06:37:12;10.40;99.90
68813;DHT22;55808;48.112;11.552;2022-11-02T06:39:37;10.40;99.90
68813;DHT22;55808;48.112;11.552;2022-11-02T06:42:03;10.40;99.90
68813;DHT22;55808;48.112;11.552;2022-11-02T06:44:29;10.30;99.90
68813;DHT22;55808;48.112;11.552;2022-11-02T06:46:54;10.30;99.90
68813;DHT22;55808;48.112;11.552;2022-11-02T06:49:20;10.30;99.90
68813;DHT22;55808;48.112;11.552;2022-11-02T06:51:46;10.30;99.90
68813;DHT22;55808;48.112;11.552;2022-11-02T06:54:11;10.30;99.90
68813;DHT22;55808;48.112;11.552;2022-11-02T06:56:37;10.30;99.90
68813;DHT22;55808;48.112;11.552;2022-11-02T06:59:02;10.20;99.90
68813;DHT22;55808;48.112;11.552;2022-11-02T07:01:28;10.20;99.90
68813;DHT22;55808;48.112;11.552;2022-11-02T07:03:53;10.30;99.90
68813;DHT22;55808;48.112;11.552;2022-11-02T07:06:19;10.20;99.90
68813;DHT22;55808;48.112;11.552;2022-11-02T07:08:45;10.30;99.90
68813;DHT22;55808;48.112;11.552;2022-11-02T07:11:15;10.20;99.90
68813;DHT22;55808;48.112;11.552;2022-11-02T07:13:41;10.30;99.90
68813;DHT22;55808;48.112;11.552;2022-11-02T07:16:07;10.30;99.90
68813;DHT22;55808;48.112;11.552;2022-11-02T07:18:33;10.20;99.90
68813;DHT22;55808;48.112;11.552;2022-11-02T07:20:59;10.30;99.90
68813;DHT22;55808;48.112;11.552;2022-11-02T07:23:24;10.30;99.90
68813;DHT22;55808;48.112;11.552;2022-11-02T07:25:50;10.30;99.90
68813;DHT22;55808;48.112;11.552;2022-11-02T07:28:16;10.30;99.90
68813;DHT22;55808;48.112;11.552;2022-11-02T07:30:41;10.30;99.90
68813;DHT22;55808;48.112;11.552;2022-11-02T07:33:07;10.40;99.90
68813;DHT22;55808;48.112;11.552;2022-11-02T07:35:32;10.40;99.90
68813;DHT22;55808;48.112;11.552;2022-11-02T07:38:00;10.50;99.90
68813;DHT22;55808;48.112;11.552;2022-11-02T07:40:28;10.50;99.90
68813;DHT22;55808;48.112;11.552;2022-11-02T07:42:54;10.60;99.90
68813;DHT22;55808;48.112;11.552;2022-11-02T07:45:21;10.60;99.90
68813;DHT22;55808;48.112;11.552;2022-11-02T07:47:48;10.70;99.90
68813;DHT22;55808;48.112;11.552;2022-11-02T07:50:17;10.80;99.90
68813;DHT22;55808;48.112;11.552;2022-11-02T07:52:54;10.90;99.90
68813;DHT22;55808;48.112;11.552;2022-11-02T07:55:22;11.00;99.90
68813;DHT22;55808;48.112;11.552;2022-11-02T08:00:23;11.10;99.90
68813;DHT22;55808;48.112;11.552;2022-11-02T08:02:56;11.20;99.90
68813;DHT22;55808;48.112;11.552;2022-11-02T08:05:22;11.40;99.90
68813;DHT22;55808;48.112;11.552;2022-11-02T08:07:58;11.60;99.90
68813;DHT22;55808;48.112;11.552;2022-11-02T08:10:24;11.70;99.90
68813;DHT22;55808;48.112;11.552;2022-11-02T08:12:51;11.80;99.90
68813;DHT22;55808;48.112;11.552;2022-11-02T08:15:17;12.00;99.90
68813;DHT22;55808;48.112;11.552;2022-11-02T08:17:44;12.10;99.90
68813;DHT22;55808;48.112;11.552;2022-11-02T08:20:10;12.20;99.90
68813;DHT22;55808;48.112;11.552;2022-11-02T08:22:39;12.30;99.90
68813;DHT22;55808;48.112;11.552;2022-11-02T08:25:06;12.40;99.90
68813;DHT22;55808;48.112;11.552;2022-11-02T08:27:32;12.40;99.90
68813;DHT22;55808;48.112;11.552;2022-11-02T08:29:58;12.40;99.90
68813;DHT22;55808;48.112;11.552;2022-11-02T08:32:23;12.50;99.90
68813;DHT22;55808;48.112;11.552;2022-11-02T08:34:49;12.60;99.20
68813;DHT22;55808;48.112;11.552;2022-11-02T08:37:15;12.90;98.70
68813;DHT22;55808;48.112;11.552;2022-11-02T08:39:41;13.10;97.60
68813;DHT22;55808;48.112;11.552;2022-11-02T08:42:07;13.10;97.70
68813;DHT22;55808;48.112;11.552;2022-11-02T08:44:32;13.20;97.10
68813;DHT22;55808;48.112;11.552;2022-11-02T08:46:58;13.30;96.80
68813;DHT22;55808;48.112;11.552;2022-11-02T08:49:23;13.40;95.80
68813;DHT22;55808;48.112;11.552;2022-11-02T08:51:49;13.50;95.20
68813;DHT22;55808;48.112;11.552;2022-11-02T08:54:15;13.50;95.80
68813;DHT22;55808;48.112;11.552;2022-11-02T08:56:40;13.40;95.80
68813;DHT22;55808;48.112;11.552;2022-11-02T08:59:07;13.40;95.70
68813;DHT22;55808;48.112;11.552;2022-11-02T09:01:32;13.50;94.40
68813;DHT22;55808;48.112;11.552;2022-11-02T09:03:58;13.40;94.20
68813;DHT22;55808;48.112;11.552;2022-11-02T09:06:24;13.40;94.10
68813;DHT22;55808;48.112;11.552;2022-11-02T09:08:49;13.50;93.40
68813;DHT22;55808;48.112;11.552;2022-11-02T09:11:15;13.50;93.50
68813;DHT22;55808;48.112;11.552;2022-11-02T09:13:41;13.60;92.90
68813;DHT22;55808;48.112;11.552;2022-11-02T09:16:07;13.60;92.70
68813;DHT22;55808;48.112;11.552;2022-11-02T09:18:32;13.70;92.80
68813;DHT22;55808;48.112;11.552;2022-11-02T09:21:02;13.80;92.50
68813;DHT22;55808;48.112;11.552;2022-11-02T09:23:29;13.90;91.90
68813;DHT22;55808;48.112;11.552;2022-11-02T09:25:54;14.00;90.60
68813;DHT22;55808;48.112;11.552;2022-11-02T09:28:20;14.10;90.60
68813;DHT22;55808;48.112;11.552;2022-11-02T09:30:46;14.20;87.40
68813;DHT22;55808;48.112;11.552;2022-11-02T09:33:12;14.20;87.40
68813;DHT22;55808;48.112;11.552;2022-11-02T09:35:42;14.30;88.10
68813;DHT22;55808;48.112;11.552;2022-11-02T09:38:07;14.30;86.90
68813;DHT22;55808;48.112;11.552;2022-11-02T09:40:38;14.30;87.50
68813;DHT22;55808;48.112;11.552;2022-11-02T09:46:02;14.30;85.70
68813;DHT22;55808;48.112;11.552;2022-11-02T09:48:34;14.40;85.90
68813;DHT22;55808;48.112;11.552;2022-11-02T09:51:23;14.40;85.80
68813;DHT22;55808;48.112;11.552;2022-11-02T09:53:55;14.30;85.50
68813;DHT22;55808;48.112;11.552;2022-11-02T09:56:23;14.30;86.00
68813;DHT22;55808;48.112;11.552;2022-11-02T09:59:01;14.20;85.70
68813;DHT22;55808;48.112;11.552;2022-11-02T10:15:19;14.30;86.10
68813;DHT22;55808;48.112;11.552;2022-11-02T10:17:47;14.40;86.10
68813;DHT22;55808;48.112;11.552;2022-11-02T10:20:20;14.40;86.00
68813;DHT22;55808;48.112;11.552;2022-11-02T10:22:47;14.40;86.30
68813;DHT22;55808;48.112;11.552;2022-11-02T10:25:15;14.40;86.30
68813;DHT22;55808;48.112;11.552;2022-11-02T10:27:45;14.40;86.00
68813;DHT22;55808;48.112;11.552;2022-11-02T10:30:13;14.30;86.20
68813;DHT22;55808;48.112;11.552;2022-11-02T10:32:40;14.30;85.90
68813;DHT22;55808;48.112;11.552;2022-11-02T10:35:19;14.20;84.70
68813;DHT22;55808;48.112;11.552;2022-11-02T10:51:20;13.80;85.30
68813;DHT22;55808;48.112;11.552;2022-11-02T10:53:50;13.70;88.60
68813;DHT22;55808;48.112;11.552;2022-11-02T10:56:18;13.80;84.00
68813;DHT22;55808;48.112;11.552;2022-11-02T11:01:15;14.00;82.50
68813;DHT22;55808;48.112;11.552;2022-11-02T11:06:22;14.10;81.90
68813;DHT22;55808;48.112;11.552;2022-11-02T11:08:48;14.10;82.00
68813;DHT22;55808;48.112;11.552;2022-11-02T11:11:20;14.10;83.30
68813;DHT22;55808;48.112;11.552;2022-11-02T11:19:03;14.10;81.00
68813;DHT22;55808;48.112;11.552;2022-11-02T11:21:39;14.20;81.20
68813;DHT22;55808;48.112;11.552;2022-11-02T11:24:27;14.20;82.60
68813;DHT22;55808;48.112;11.552;2022-11-02T11:29:30;14.60;80.40
68813;DHT22;55808;48.112;11.552;2022-11-02T11:31:56;14.80;79.80
68813;DHT22;55808;48.112;11.552;2022-11-02T11:34:25;14.70;79.70
68813;DHT22;55808;48.112;11.552;2022-11-02T11:36:51;14.70;80.10
68813;DHT22;55808;48.112;11.552;2022-11-02T11:39:28;14.50;79.70
68813;DHT22;55808;48.112;11.552;2022-11-02T11:41:55;14.40;80.50
68813;DHT22;55808;48.112;11.552;2022-11-02T11:44:21;14.40;81.20
68813;DHT22;55808;48.112;11.552;2022-11-02T11:46:52;14.30;79.90
68813;DHT22;55808;48.112;11.552;2022-11-02T11:49:24;14.30;80.10
68813;DHT22;55808;48.112;11.552;2022-11-02T11:51:53;14.30;79.20
68813;DHT22;55808;48.112;11.552;2022-11-02T11:54:30;14.70;79.60
68813;DHT22;55808;48.112;11.552;2022-11-02T11:56:57;15.10;79.00
68813;DHT22;55808;48.112;11.552;2022-11-02T12:02:24;14.70;82.30
68813;DHT22;55808;48.112;11.552;2022-11-02T12:04:59;14.40;82.60
68813;DHT22;55808;48.112;11.552;2022-11-02T12:10:02;14.20;82.90
68813;DHT22;55808;48.112;11.552;2022-11-02T12:16:09;14.10;83.20
68813;DHT22;55808;48.112;11.552;2022-11-02T12:24:11;14.00;83.90
68813;DHT22;55808;48.112;11.552;2022-11-02T12:27:20;13.90;84.10
68813;DHT22;55808;48.112;11.552;2022-11-02T12:30:11;13.90;84.50
68813;DHT22;55808;48.112;11.552;2022-11-02T12:54:40;13.70;85.80
68813;DHT22;55808;48.112;11.552;2022-11-02T12:57:12;13.70;87.00
68813;DHT22;55808;48.112;11.552;2022-11-02T12:59:41;13.60;85.60
68813;DHT22;55808;48.112;11.552;2022-11-02T13:02:18;13.70;86.00
68813;DHT22;55808;48.112;11.552;2022-11-02T13:07:47;13.60;85.20
68813;DHT22;55808;48.112;11.552;2022-11-02T13:10:20;13.70;85.70
68813;DHT22;55808;48.112;11.552;2022-11-02T13:12:52;13.70;84.80
68813;DHT22;55808;48.112;11.552;2022-11-02T13:15:21;13.70;85.80
68813;DHT22;55808;48.112;11.552;2022-11-02T13:17:55;13.80;85.40
68813;DHT22;55808;48.112;11.552;2022-11-02T13:20:27;13.80;85.00
68813;DHT22;55808;48.112;11.552;2022-11-02T13:23:05;13.70;85.40
68813;DHT22;55808;48.112;11.552;2022-11-02T13:25:36;13.90;84.40
68813;DHT22;55808;48.112;11.552;2022-11-02T13:28:14;13.90;84.00
68813;DHT22;55808;48.112;11.552;2022-11-02T13:30:42;13.90;85.00
68813;DHT22;55808;48.112;11.552;2022-11-02T13:33:25;13.90;83.40
68813;DHT22;55808;48.112;11.552;2022-11-02T13:35:53;13.70;83.50
68813;DHT22;55808;48.112;11.552;2022-11-02T13:38:43;13.70;83.80
68813;DHT22;55808;48.112;11.552;2022-11-02T13:49:49;13.50;83.90
68813;DHT22;55808;48.112;11.552;2022-11-02T13:52:22;13.50;83.10
68813;DHT22;55808;48.112;11.552;2022-11-02T13:55:00;13.60;83.50
68813;DHT22;55808;48.112;11.552;2022-11-02T13:59:52;13.50;84.30
68813;DHT22;55808;48.112;11.552;2022-11-02T14:02:19;13.60;84.00
68813;DHT22;55808;48.112;11.552;2022-11-02T14:04:46;13.70;84.70
68813;DHT22;55808;48.112;11.552;2022-11-02T14:09:47;13.50;84.80
68813;DHT22;55808;48.112;11.552;2022-11-02T14:18:11;13.50;85.90
68813;DHT22;55808;48.112;11.552;2022-11-02T14:20:41;13.50;84.60
68813;DHT22;55808;48.112;11.552;2022-11-02T14:25:47;13.50;85.80
68813;DHT22;55808;48.112;11.552;2022-11-02T14:28:42;13.40;85.70
68813;DHT22;55808;48.112;11.552;2022-11-02T14:38:50;13.40;84.70
68813;DHT22;55808;48.112;11.552;2022-11-02T14:41:53;13.50;84.60
68813;DHT22;55808;48.112;11.552;2022-11-02T14:47:04;13.50;84.50
68813;DHT22;55808;48.112;11.552;2022-11-02T14:49:35;13.40;84.40
68813;DHT22;55808;48.112;11.552;2022-11-02T14:52:18;13.40;84.40
68813;DHT22;55808;48.112;11.552;2022-11-02T14:57:38;14.00;83.70
68813;DHT22;55808;48.112;11.552;2022-11-02T15:00:21;14.00;83.40
68813;DHT22;55808;48.112;11.552;2022-11-02T15:02:48;14.00;83.10
68813;DHT22;55808;48.112;11.552;2022-11-02T15:05:25;13.90;83.40
68813;DHT22;55808;48.112;11.552;2022-11-02T15:08:00;13.70;84.40
68813;DHT22;55808;48.112;11.552;2022-11-02T15:18:37;13.10;87.30
68813;DHT22;55808;48.112;11.552;2022-11-02T15:26:52;12.90;89.70
68813;DHT22;55808;48.112;11.552;2022-11-02T15:31:54;12.70;90.30
68813;DHT22;55808;48.112;11.552;2022-11-02T15:34:28;12.70;91.40
68813;DHT22;55808;48.112;11.552;2022-11-02T15:36:58;12.60;92.10
68813;DHT22;55808;48.112;11.552;2022-11-02T15:39:24;12.50;92.00
68813;DHT22;55808;48.112;11.552;2022-11-02T15:42:10;12.50;92.10
68813;DHT22;55808;48.112;11.552;2022-11-02T15:45:07;12.50;90.60
68813;DHT22;55808;48.112;11.552;2022-11-02T15:48:02;12.40;92.10
68813;DHT22;55808;48.112;11.552;2022-11-02T15:51:22;12.30;92.50
68813;DHT22;55808;48.112;11.552;2022-11-02T15:56:31;12.10;93.40
68813;DHT22;55808;48.112;11.552;2022-11-02T15:59:24;12.00;93.70
68813;DHT22;55808;48.112;11.552;2022-11-02T16:04:35;11.90;94.10
68813;DHT22;55808;48.112;11.552;2022-11-02T16:07:05;11.90;94.30
68813;DHT22;55808;48.112;11.552;2022-11-02T16:09:37;11.90;93.80
68813;DHT22;55808;48.112;11.552;2022-11-02T16:12:16;11.90;93.40
68813;DHT22;55808;48.112;11.552;2022-11-02T16:14:44;11.80;93.30
68813;DHT22;55808;48.112;11.552;2022-11-02T16:17:41;11.80;93.70
68813;DHT22;55808;48.112;11.552;2022-11-02T16:22:47;11.70;94.20
68813;DHT22;55808;48.112;11.552;2022-11-02T16:25:42;11.60;94.50
68813;DHT22;55808;48.112;11.552;2022-11-02T16:28:21;11.50;94.30
68813;DHT22;55808;48.112;11.552;2022-11-02T16:33:44;11.50;95.40
68813;DHT22;55808;48.112;11.552;2022-11-02T16:36:15;11.40;94.60
68813;DHT22;55808;48.112;11.552;2022-11-02T16:39:01;11.40;94.90
68813;DHT22;55808;48.112;11.552;2022-11-02T16:41:31;11.30;94.40
68813;DHT22;55808;48.112;11.552;2022-11-02T16:44:02;11.20;94.80
68813;DHT22;55808;48.112;11.552;2022-11-02T16:49:18;11.10;95.40
68813;DHT22;55808;48.112;11.552;2022-11-02T16:51:55;11.00;95.70
68813;DHT22;55808;48.112;11.552;2022-11-02T16:59:52;11.00;96.40
68813;DHT22;55808;48.112;11.552;2022-11-02T17:02:28;10.90;96.50
68813;DHT22;55808;48.112;11.552;2022-11-02T17:04:58;10.90;96.70
68813;DHT22;55808;48.112;11.552;2022-11-02T17:07:31;10.80;97.30
68813;DHT22;55808;48.112;11.552;2022-11-02T17:09:59;10.80;97.30
68813;DHT22;55808;48.112;11.552;2022-11-02T17:15:02;10.70;97.70
68813;DHT22;55808;48.112;11.552;2022-11-02T17:17:37;10.70;97.70
68813;DHT22;55808;48.112;11.552;2022-11-02T17:25:25;10.60;97.20
68813;DHT22;55808;48.112;11.552;2022-11-02T17:27:53;10.60;97.00
68813;DHT22;55808;48.112;11.552;2022-11-02T17:32:56;10.40;97.50
68813;DHT22;55808;48.112;11.552;2022-11-02T17:35:22;10.40;97.60
68813;DHT22;55808;48.112;11.552;2022-11-02T17:37:48;10.40;97.40
68813;DHT22;55808;48.112;11.552;2022-11-02T17:40:14;10.50;97.50
68813;DHT22;55808;48.112;11.552;2022-11-02T17:42:39;10.50;97.20
68813;DHT22;55808;48.112;11.552;2022-11-02T17:45:28;10.40;97.70
68813;DHT22;55808;48.112;11.552;2022-11-02T17:47:57;10.30;98.40
68813;DHT22;55808;48.112;11.552;2022-11-02T17:50:25;10.30;98.40
68813;DHT22;55808;48.112;11.552;2022-11-02T17:52:51;10.30;98.90
68813;DHT22;55808;48.112;11.552;2022-11-02T17:55:22;10.20;98.50
68813;DHT22;55808;48.112;11.552;2022-11-02T17:57:48;10.20;98.50
68813;DHT22;55808;48.112;11.552;2022-11-02T18:00:15;10.20;99.00
68813;DHT22;55808;48.112;11.552;2022-11-02T18:02:47;10.10;99.50
68813;DHT22;55808;48.112;11.552;2022-11-02T18:07:50;10.10;99.30
68813;DHT22;55808;48.112;11.552;2022-11-02T18:10:17;10.10;99.20
68813;DHT22;55808;48.112;11.552;2022-11-02T18:12:43;10.00;99.50
68813;DHT22;55808;48.112;11.552;2022-11-02T18:15:20;9.90;99.30
68813;DHT22;55808;48.112;11.552;2022-11-02T18:17:46;9.90;99.90
68813;DHT22;55808;48.112;11.552;2022-11-02T18:20:13;9.80;99.90
68813;DHT22;55808;48.112;11.552;2022-11-02T18:22:39;9.80;99.90
68813;DHT22;55808;48.112;11.552;2022-11-02T18:25:06;9.70;99.90
68813;DHT22;55808;48.112;11.552;2022-11-02T18:27:33;9.70;99.90
68813;DHT22;55808;48.112;11.552;2022-11-02T18:29:59;9.60;99.90
68813;DHT22;55808;48.112;11.552;2022-11-02T18:32:25;9.60;99.90
68813;DHT22;55808;48.112;11.552;2022-11-02T18:34:51;9.60;99.90
68813;DHT22;55808;48.112;11.552;2022-11-02T18:37:16;9.60;99.90
68813;DHT22;55808;48.112;11.552;2022-11-02T18:39:42;9.60;99.90
68813;DHT22;55808;48.112;11.552;2022-11-02T18:42:08;9.60;99.90
68813;DHT22;55808;48.112;11.552;2022-11-02T18:44:33;9.60;99.90
68813;DHT22;55808;48.112;11.552;2022-11-02T18:46:59;9.50;99.90
68813;DHT22;55808;48.112;11.552;2022-11-02T18:49:25;9.50;99.90